sensor_id;sensor_type;location;lat;lon;timestamp;temperature;humidity
54898;DHT22;40800;52.704;6.398;2023-12-22T00:00:19;8.90;99.90
54898;DHT22;40800;52.704;6.398;2023-12-22T00:02:45;8.80;99.90
54898;DHT22;40800;52.704;6.398;2023-12-22T00:05:10;8.80;99.90
54898;DHT22;40800;52.704;6.398;2023-12-22T00:07:36;8.70;99.90
54898;DHT22;40800;52.704;6.398;2023-12-22T00:10:01;8.80;99.90
54898;DHT22;40800;52.704;6.398;2023-12-22T00:12:27;8.80;99.90
54898;DHT22;40800;52.704;6.398;2023-12-22T00:14:53;8.80;99.90
54898;DHT22;40800;52.704;6.398;2023-12-22T00:17:19;8.90;99.90
54898;DHT22;40800;52.704;6.398;2023-12-22T00:19:44;8.90;99.90
54898;DHT22;40800;52.704;6.398;2023-12-22T00:22:10;8.70;99.90
54898;DHT22;40800;52.704;6.398;2023-12-22T00:24:36;8.70;99.90
54898;DHT22;40800;52.704;6.398;2023-12-22T00:27:01;8.80;99.90
54898;DHT22;40800;52.704;6.398;2023-12-22T00:29:28;8.80;99.90
54898;DHT22;40800;52.704;6.398;2023-12-22T00:31:54;8.70;99.90
54898;DHT22;40800;52.704;6.398;2023-12-22T00:34:22;8.70;99.90
54898;DHT22;40800;52.704;6.398;2023-12-22T00:36:47;8.60;99.90
54898;DHT22;40800;52.704;6.398;2023-12-22T00:39:13;8.60;99.90
54898;DHT22;40800;52.704;6.398;2023-12-22T00:41:39;8.60;99.90
54898;DHT22;40800;52.704;6.398;2023-12-22T00:44:04;8.60;99.90
54898;DHT22;40800;52.704;6.398;2023-12-22T00:46:30;8.70;99.90
54898;DHT22;40800;52.704;6.398;2023-12-22T00:48:55;8.70;99.90
54898;DHT22;40800;52.704;6.398;2023-12-22T00:51:21;8.70;99.90
54898;DHT22;40800;52.704;6.398;2023-12-22T00:53:47;8.80;99.90
54898;DHT22;40800;52.704;6.398;2023-12-22T00:56:12;8.80;99.90
54898;DHT22;40800;52.704;6.398;2023-12-22T00:58:39;8.80;99.90
54898;DHT22;40800;52.704;6.398;2023-12-22T01:01:05;8.80;99.90
54898;DHT22;40800;52.704;6.398;2023-12-22T01:03:30;8.70;99.90
54898;DHT22;40800;52.704;6.398;2023-12-22T01:05:56;8.60;99.90
54898;DHT22;40800;52.704;6.398;2023-12-22T01:08:21;8.50;99.90
54898;DHT22;40800;52.704;6.398;2023-12-22T01:10:47;8.50;99.90
54898;DHT22;40800;52.704;6.398;2023-12-22T01:13:13;8.40;99.90
54898;DHT22;40800;52.704;6.398;2023-12-22T01:15:38;8.50;99.90
54898;DHT22;40800;52.704;6.398;2023-12-22T01:18:04;8.50;99.90
54898;DHT22;40800;52.704;6.398;2023-12-22T01:20:30;8.50;99.90
54898;DHT22;40800;52.704;6.398;2023-12-22T01:22:56;8.40;99.90
54898;DHT22;40800;52.704;6.398;2023-12-22T01:25:21;8.60;99.90
54898;DHT22;40800;52.704;6.398;2023-12-22T01:27:47;8.60;99.90
54898;DHT22;40800;52.704;6.398;2023-12-22T01:30:14;8.70;99.90
54898;DHT22;40800;52.704;6.398;2023-12-22T01:32:39;8.70;99.90
54898;DHT22;40800;52.704;6.398;2023-12-22T01:35:05;8.70;99.90
54898;DHT22;40800;52.704;6.398;2023-12-22T01:37:36;8.70;99.90
54898;DHT22;40800;52.704;6.398;2023-12-22T01:40:02;8.70;99.90
54898;DHT22;40800;52.704;6.398;2023-12-22T01:42:28;8.60;99.90
54898;DHT22;40800;52.704;6.398;2023-12-22T01:44:53;8.70;99.90
54898;DHT22;40800;52.704;6.398;2023-12-22T01:47:19;8.70;99.90
54898;DHT22;40800;52.704;6.398;2023-12-22T01:49:45;8.80;99.90
54898;DHT22;40800;52.704;6.398;2023-12-22T01:52:11;8.90;99.90
54898;DHT22;40800;52.704;6.398;2023-12-22T01:54:36;8.80;99.90
54898;DHT22;40800;52.704;6.398;2023-12-22T01:57:02;8.90;99.90
54898;DHT22;40800;52.704;6.398;2023-12-22T01:59:28;8.80;99.90
54898;DHT22;40800;52.704;6.398;2023-12-22T02:02:00;8.90;99.90
54898;DHT22;40800;52.704;6.398;2023-12-22T02:04:26;8.80;99.90
54898;DHT22;40800;52.704;6.398;2023-12-22T02:06:53;8.80;99.90
54898;DHT22;40800;52.704;6.398;2023-12-22T02:09:19;8.80;99.90
54898;DHT22;40800;52.704;6.398;2023-12-22T02:11:44;8.80;99.90
54898;DHT22;40800;52.704;6.398;2023-12-22T02:14:10;8.70;99.90
54898;DHT22;40800;52.704;6.398;2023-12-22T02:16:45;8.60;99.90
54898;DHT22;40800;52.704;6.398;2023-12-22T02:19:33;8.60;99.90
54898;DHT22;40800;52.704;6.398;2023-12-22T02:22:06;8.60;99.90
54898;DHT22;40800;52.704;6.398;2023-12-22T02:24:32;8.60;99.90
54898;DHT22;40800;52.704;6.398;2023-12-22T02:27:14;8.60;99.90
54898;DHT22;40800;52.704;6.398;2023-12-22T02:29:48;8.60;99.90
54898;DHT22;40800;52.704;6.398;2023-12-22T02:32:22;8.60;99.90
54898;DHT22;40800;52.704;6.398;2023-12-22T02:34:51;8.50;99.90
54898;DHT22;40800;52.704;6.398;2023-12-22T02:37:18;8.50;99.90
54898;DHT22;40800;52.704;6.398;2023-12-22T02:39:45;8.30;99.90
54898;DHT22;40800;52.704;6.398;2023-12-22T02:42:11;8.00;99.90
54898;DHT22;40800;52.704;6.398;2023-12-22T02:44:38;7.70;99.90
54898;DHT22;40800;52.704;6.398;2023-12-22T02:47:03;7.40;99.90
54898;DHT22;40800;52.704;6.398;2023-12-22T02:49:29;7.40;99.90
54898;DHT22;40800;52.704;6.398;2023-12-22T02:51:55;7.40;99.90
54898;DHT22;40800;52.704;6.398;2023-12-22T02:54:20;7.40;99.90
54898;DHT22;40800;52.704;6.398;2023-12-22T02:56:47;7.40;99.90
54898;DHT22;40800;52.704;6.398;2023-12-22T02:59:12;7.30;99.90
54898;DHT22;40800;52.704;6.398;2023-12-22T03:01:38;7.40;99.90
54898;DHT22;40800;52.704;6.398;2023-12-22T03:04:03;7.50;99.90
54898;DHT22;40800;52.704;6.398;2023-12-22T03:06:29;7.40;99.90
54898;DHT22;40800;52.704;6.398;2023-12-22T03:08:55;7.50;99.90
54898;DHT22;40800;52.704;6.398;2023-12-22T03:11:20;7.50;99.90
54898;DHT22;40800;52.704;6.398;2023-12-22T03:13:46;7.50;99.90
54898;DHT22;40800;52.704;6.398;2023-12-22T03:16:11;7.30;99.90
54898;DHT22;40800;52.704;6.398;2023-12-22T03:18:40;7.30;99.90
54898;DHT22;40800;52.704;6.398;2023-12-22T03:21:05;7.30;99.90
54898;DHT22;40800;52.704;6.398;2023-12-22T03:23:31;7.10;99.90
54898;DHT22;40800;52.704;6.398;2023-12-22T03:25:56;7.00;99.90
54898;DHT22;40800;52.704;6.398;2023-12-22T03:35:32;6.80;99.90
54898;DHT22;40800;52.704;6.398;2023-12-22T03:37:58;6.70;99.90
54898;DHT22;40800;52.704;6.398;2023-12-22T03:40:23;6.70;99.90
54898;DHT22;40800;52.704;6.398;2023-12-22T03:42:49;6.70;99.90
54898;DHT22;40800;52.704;6.398;2023-12-22T03:45:15;6.70;99.90
54898;DHT22;40800;52.704;6.398;2023-12-22T03:47:41;6.70;99.90
54898;DHT22;40800;52.704;6.398;2023-12-22T03:50:07;6.70;99.90
54898;DHT22;40800;52.704;6.398;2023-12-22T03:52:34;6.90;99.90
54898;DHT22;40800;52.704;6.398;2023-12-22T03:54:59;6.80;99.90
54898;DHT22;40800;52.704;6.398;2023-12-22T03:57:25;6.90;99.90
54898;DHT22;40800;52.704;6.398;2023-12-22T03:59:50;7.00;99.90
54898;DHT22;40800;52.704;6.398;2023-12-22T04:02:16;6.90;99.90
54898;DHT22;40800;52.704;6.398;2023-12-22T04:04:41;6.80;99.90
54898;DHT22;40800;52.704;6.398;2023-12-22T04:07:07;6.90;99.90
54898;DHT22;40800;52.704;6.398;2023-12-22T04:09:32;7.00;99.90
54898;DHT22;40800;52.704;6.398;2023-12-22T04:11:58;7.00;99.90
54898;DHT22;40800;52.704;6.398;2023-12-22T04:14:23;7.10;99.90
54898;DHT22;40800;52.704;6.398;2023-12-22T04:16:49;7.20;99.90
54898;DHT22;40800;52.704;6.398;2023-12-22T04:19:14;7.20;99.90
54898;DHT22;40800;52.704;6.398;2023-12-22T04:21:40;7.30;99.90
54898;DHT22;40800;52.704;6.398;2023-12-22T04:24:06;8.30;99.90
54898;DHT22;40800;52.704;6.398;2023-12-22T04:26:31;7.60;99.90
54898;DHT22;40800;52.704;6.398;2023-12-22T04:28:57;7.50;99.90
54898;DHT22;40800;52.704;6.398;2023-12-22T04:31:22;7.70;99.90
54898;DHT22;40800;52.704;6.398;2023-12-22T04:33:48;7.70;99.90
54898;DHT22;40800;52.704;6.398;2023-12-22T04:36:14;7.70;99.90
54898;DHT22;40800;52.704;6.398;2023-12-22T04:38:39;7.80;99.90
54898;DHT22;40800;52.704;6.398;2023-12-22T04:41:06;7.80;99.90
54898;DHT22;40800;52.704;6.398;2023-12-22T04:43:31;7.70;99.90
54898;DHT22;40800;52.704;6.398;2023-12-22T04:45:57;7.80;99.90
54898;DHT22;40800;52.704;6.398;2023-12-22T04:48:23;7.80;99.90
54898;DHT22;40800;52.704;6.398;2023-12-22T04:50:48;8.00;99.90
54898;DHT22;40800;52.704;6.398;2023-12-22T04:53:14;7.90;99.90
54898;DHT22;40800;52.704;6.398;2023-12-22T04:55:39;8.00;99.90
54898;DHT22;40800;52.704;6.398;2023-12-22T04:58:05;8.00;99.90
54898;DHT22;40800;52.704;6.398;2023-12-22T05:00:30;8.00;99.90
54898;DHT22;40800;52.704;6.398;2023-12-22T05:02:56;8.10;99.90
54898;DHT22;40800;52.704;6.398;2023-12-22T05:05:21;8.10;99.90
54898;DHT22;40800;52.704;6.398;2023-12-22T05:07:47;8.10;99.90
54898;DHT22;40800;52.704;6.398;2023-12-22T05:10:12;8.30;99.90
54898;DHT22;40800;52.704;6.398;2023-12-22T05:12:38;8.30;99.90
54898;DHT22;40800;52.704;6.398;2023-12-22T05:15:04;8.30;99.90
54898;DHT22;40800;52.704;6.398;2023-12-22T05:17:30;8.20;99.90
54898;DHT22;40800;52.704;6.398;2023-12-22T05:19:55;8.30;99.90
54898;DHT22;40800;52.704;6.398;2023-12-22T05:22:21;8.40;99.90
54898;DHT22;40800;52.704;6.398;2023-12-22T05:24:47;8.40;99.90
54898;DHT22;40800;52.704;6.398;2023-12-22T05:27:12;8.40;99.90
54898;DHT22;40800;52.704;6.398;2023-12-22T05:29:38;8.40;99.90
54898;DHT22;40800;52.704;6.398;2023-12-22T05:32:04;8.40;99.90
54898;DHT22;40800;52.704;6.398;2023-12-22T05:34:29;8.40;99.90
54898;DHT22;40800;52.704;6.398;2023-12-22T05:36:56;8.50;99.90
54898;DHT22;40800;52.704;6.398;2023-12-22T05:39:22;8.40;99.90
54898;DHT22;40800;52.704;6.398;2023-12-22T05:41:47;8.40;99.90
54898;DHT22;40800;52.704;6.398;2023-12-22T05:44:13;8.50;99.90
54898;DHT22;40800;52.704;6.398;2023-12-22T05:46:38;8.50;99.90
54898;DHT22;40800;52.704;6.398;2023-12-22T05:49:04;8.60;99.90
54898;DHT22;40800;52.704;6.398;2023-12-22T05:51:39;8.60;99.90
54898;DHT22;40800;52.704;6.398;2023-12-22T05:54:07;8.60;99.90
54898;DHT22;40800;52.704;6.398;2023-12-22T05:56:33;8.60;99.90
54898;DHT22;40800;52.704;6.398;2023-12-22T05:58:59;8.70;99.90
54898;DHT22;40800;52.704;6.398;2023-12-22T06:01:24;8.60;99.90
54898;DHT22;40800;52.704;6.398;2023-12-22T06:03:50;8.70;99.90
54898;DHT22;40800;52.704;6.398;2023-12-22T06:06:16;8.70;99.90
54898;DHT22;40800;52.704;6.398;2023-12-22T06:08:41;8.70;99.90
54898;DHT22;40800;52.704;6.398;2023-12-22T06:11:07;8.70;99.90
54898;DHT22;40800;52.704;6.398;2023-12-22T06:13:32;8.70;99.90
54898;DHT22;40800;52.704;6.398;2023-12-22T06:15:58;8.70;99.90
54898;DHT22;40800;52.704;6.398;2023-12-22T06:18:24;8.70;99.90
54898;DHT22;40800;52.704;6.398;2023-12-22T06:20:50;8.60;99.90
54898;DHT22;40800;52.704;6.398;2023-12-22T06:23:15;8.60;99.90
54898;DHT22;40800;52.704;6.398;2023-12-22T06:25:41;8.50;99.90
54898;DHT22;40800;52.704;6.398;2023-12-22T06:28:07;8.50;99.90
54898;DHT22;40800;52.704;6.398;2023-12-22T06:30:32;8.60;99.90
54898;DHT22;40800;52.704;6.398;2023-12-22T06:32:58;8.70;99.90
54898;DHT22;40800;52.704;6.398;2023-12-22T06:35:23;8.60;99.90
54898;DHT22;40800;52.704;6.398;2023-12-22T06:37:51;8.60;99.90
54898;DHT22;40800;52.704;6.398;2023-12-22T06:40:17;8.70;99.90
54898;DHT22;40800;52.704;6.398;2023-12-22T06:42:44;8.60;99.90
54898;DHT22;40800;52.704;6.398;2023-12-22T06:45:10;9.70;99.90
54898;DHT22;40800;52.704;6.398;2023-12-22T06:47:36;8.60;99.90
54898;DHT22;40800;52.704;6.398;2023-12-22T06:50:02;8.60;99.90
54898;DHT22;40800;52.704;6.398;2023-12-22T06:52:28;8.60;99.90
54898;DHT22;40800;52.704;6.398;2023-12-22T06:54:53;8.60;99.90
54898;DHT22;40800;52.704;6.398;2023-12-22T06:57:19;8.70;99.90
54898;DHT22;40800;52.704;6.398;2023-12-22T06:59:46;8.70;99.90
54898;DHT22;40800;52.704;6.398;2023-12-22T07:02:13;8.70;99.90
54898;DHT22;40800;52.704;6.398;2023-12-22T07:04:39;8.70;99.90
54898;DHT22;40800;52.704;6.398;2023-12-22T07:07:04;8.60;99.90
54898;DHT22;40800;52.704;6.398;2023-12-22T07:09:30;8.60;99.90
54898;DHT22;40800;52.704;6.398;2023-12-22T07:11:56;8.70;99.90
54898;DHT22;40800;52.704;6.398;2023-12-22T07:14:22;8.60;99.90
54898;DHT22;40800;52.704;6.398;2023-12-22T07:16:47;8.60;99.90
54898;DHT22;40800;52.704;6.398;2023-12-22T07:19:13;8.70;99.90
54898;DHT22;40800;52.704;6.398;2023-12-22T07:21:39;8.60;99.90
54898;DHT22;40800;52.704;6.398;2023-12-22T07:24:06;8.70;99.90
54898;DHT22;40800;52.704;6.398;2023-12-22T07:26:31;8.70;99.90
54898;DHT22;40800;52.704;6.398;2023-12-22T07:28:57;8.70;99.90
54898;DHT22;40800;52.704;6.398;2023-12-22T07:31:23;8.70;99.90
54898;DHT22;40800;52.704;6.398;2023-12-22T07:33:49;8.80;99.90
54898;DHT22;40800;52.704;6.398;2023-12-22T07:36:15;8.80;99.90
54898;DHT22;40800;52.704;6.398;2023-12-22T07:38:40;8.60;99.90
54898;DHT22;40800;52.704;6.398;2023-12-22T07:41:06;8.60;99.90
54898;DHT22;40800;52.704;6.398;2023-12-22T07:43:31;8.70;99.90
54898;DHT22;40800;52.704;6.398;2023-12-22T07:45:57;8.60;99.90
54898;DHT22;40800;52.704;6.398;2023-12-22T07:48:23;8.70;99.90
54898;DHT22;40800;52.704;6.398;2023-12-22T07:50:49;8.60;99.90
54898;DHT22;40800;52.704;6.398;2023-12-22T07:53:15;8.70;99.90
54898;DHT22;40800;52.704;6.398;2023-12-22T07:55:41;8.70;99.90
54898;DHT22;40800;52.704;6.398;2023-12-22T07:58:06;8.70;99.90
54898;DHT22;40800;52.704;6.398;2023-12-22T08:00:32;8.70;99.90
54898;DHT22;40800;52.704;6.398;2023-12-22T08:02:58;8.50;99.90
54898;DHT22;40800;52.704;6.398;2023-12-22T08:05:23;8.70;99.90
54898;DHT22;40800;52.704;6.398;2023-12-22T08:07:49;8.60;99.90
54898;DHT22;40800;52.704;6.398;2023-12-22T08:10:15;8.50;99.90
54898;DHT22;40800;52.704;6.398;2023-12-22T08:12:41;8.50;99.90
54898;DHT22;40800;52.704;6.398;2023-12-22T08:15:08;8.60;99.90
54898;DHT22;40800;52.704;6.398;2023-12-22T08:17:36;8.50;99.90
54898;DHT22;40800;52.704;6.398;2023-12-22T08:20:02;8.50;99.90
54898;DHT22;40800;52.704;6.398;2023-12-22T08:22:28;8.70;99.90
54898;DHT22;40800;52.704;6.398;2023-12-22T08:24:53;8.60;99.90
54898;DHT22;40800;52.704;6.398;2023-12-22T08:27:19;8.70;99.90
54898;DHT22;40800;52.704;6.398;2023-12-22T08:29:44;8.70;99.90
54898;DHT22;40800;52.704;6.398;2023-12-22T08:32:10;7.90;99.90
54898;DHT22;40800;52.704;6.398;2023-12-22T08:34:36;8.60;99.90
54898;DHT22;40800;52.704;6.398;2023-12-22T08:37:02;8.60;99.90
54898;DHT22;40800;52.704;6.398;2023-12-22T08:39:27;8.50;99.90
54898;DHT22;40800;52.704;6.398;2023-12-22T08:41:53;8.50;99.90
54898;DHT22;40800;52.704;6.398;2023-12-22T08:44:19;8.60;99.90
54898;DHT22;40800;52.704;6.398;2023-12-22T08:46:45;8.60;99.90
54898;DHT22;40800;52.704;6.398;2023-12-22T08:49:10;8.30;99.90
54898;DHT22;40800;52.704;6.398;2023-12-22T08:51:36;8.40;99.90
54898;DHT22;40800;52.704;6.398;2023-12-22T08:54:02;8.20;99.90
54898;DHT22;40800;52.704;6.398;2023-12-22T08:56:29;8.10;99.90
54898;DHT22;40800;52.704;6.398;2023-12-22T08:58:55;8.30;99.90
54898;DHT22;40800;52.704;6.398;2023-12-22T09:01:23;8.30;99.90
54898;DHT22;40800;52.704;6.398;2023-12-22T09:03:49;7.90;99.90
54898;DHT22;40800;52.704;6.398;2023-12-22T09:06:19;7.90;99.90
54898;DHT22;40800;52.704;6.398;2023-12-22T09:08:45;7.90;99.90
54898;DHT22;40800;52.704;6.398;2023-12-22T09:11:12;8.30;99.90
54898;DHT22;40800;52.704;6.398;2023-12-22T09:13:40;8.30;99.90
54898;DHT22;40800;52.704;6.398;2023-12-22T09:16:05;8.20;99.90
54898;DHT22;40800;52.704;6.398;2023-12-22T09:18:31;8.10;99.90
54898;DHT22;40800;52.704;6.398;2023-12-22T09:20:57;7.90;99.90
54898;DHT22;40800;52.704;6.398;2023-12-22T09:23:23;8.30;99.90
54898;DHT22;40800;52.704;6.398;2023-12-22T09:25:49;8.10;99.90
54898;DHT22;40800;52.704;6.398;2023-12-22T09:28:14;7.90;99.90
54898;DHT22;40800;52.704;6.398;2023-12-22T09:30:40;7.90;99.90
54898;DHT22;40800;52.704;6.398;2023-12-22T09:33:07;7.80;99.90
54898;DHT22;40800;52.704;6.398;2023-12-22T09:35:33;7.90;99.90
54898;DHT22;40800;52.704;6.398;2023-12-22T09:37:58;8.40;99.90
54898;DHT22;40800;52.704;6.398;2023-12-22T09:40:24;7.90;99.90
54898;DHT22;40800;52.704;6.398;2023-12-22T09:42:50;8.10;99.90
54898;DHT22;40800;52.704;6.398;2023-12-22T09:45:19;8.30;99.90
54898;DHT22;40800;52.704;6.398;2023-12-22T09:47:47;7.80;99.90
54898;DHT22;40800;52.704;6.398;2023-12-22T09:50:14;7.70;99.90
54898;DHT22;40800;52.704;6.398;2023-12-22T09:52:43;8.50;99.90
54898;DHT22;40800;52.704;6.398;2023-12-22T09:55:13;7.80;99.90
54898;DHT22;40800;52.704;6.398;2023-12-22T09:57:39;8.40;99.90
54898;DHT22;40800;52.704;6.398;2023-12-22T10:00:09;7.90;99.90
54898;DHT22;40800;52.704;6.398;2023-12-22T10:02:36;8.20;99.90
54898;DHT22;40800;52.704;6.398;2023-12-22T10:05:02;8.20;99.90
54898;DHT22;40800;52.704;6.398;2023-12-22T10:07:30;7.70;99.90
54898;DHT22;40800;52.704;6.398;2023-12-22T10:09:56;8.00;99.90
54898;DHT22;40800;52.704;6.398;2023-12-22T10:12:23;8.30;99.90
54898;DHT22;40800;52.704;6.398;2023-12-22T10:14:49;7.80;99.90
54898;DHT22;40800;52.704;6.398;2023-12-22T10:17:16;8.20;99.90
54898;DHT22;40800;52.704;6.398;2023-12-22T10:19:42;7.80;99.90
54898;DHT22;40800;52.704;6.398;2023-12-22T10:22:08;7.70;99.90
54898;DHT22;40800;52.704;6.398;2023-12-22T10:24:44;8.30;99.90
54898;DHT22;40800;52.704;6.398;2023-12-22T10:27:13;7.80;99.90
54898;DHT22;40800;52.704;6.398;2023-12-22T10:29:39;7.90;99.90
54898;DHT22;40800;52.704;6.398;2023-12-22T10:32:05;8.40;99.90
54898;DHT22;40800;52.704;6.398;2023-12-22T10:34:31;8.20;99.90
54898;DHT22;40800;52.704;6.398;2023-12-22T10:36:58;8.40;99.90
54898;DHT22;40800;52.704;6.398;2023-12-22T10:39:31;7.90;99.90
54898;DHT22;40800;52.704;6.398;2023-12-22T10:42:00;8.20;99.90
54898;DHT22;40800;52.704;6.398;2023-12-22T10:44:26;8.30;99.90
54898;DHT22;40800;52.704;6.398;2023-12-22T10:46:52;8.20;99.90
54898;DHT22;40800;52.704;6.398;2023-12-22T10:49:20;8.50;99.90
54898;DHT22;40800;52.704;6.398;2023-12-22T10:51:45;8.00;99.90
54898;DHT22;40800;52.704;6.398;2023-12-22T10:54:11;8.10;99.90
54898;DHT22;40800;52.704;6.398;2023-12-22T10:56:36;8.50;99.90
54898;DHT22;40800;52.704;6.398;2023-12-22T10:59:02;8.50;99.90
54898;DHT22;40800;52.704;6.398;2023-12-22T11:01:30;8.10;99.90
54898;DHT22;40800;52.704;6.398;2023-12-22T11:04:02;8.10;99.90
54898;DHT22;40800;52.704;6.398;2023-12-22T11:06:29;8.30;99.90
54898;DHT22;40800;52.704;6.398;2023-12-22T11:08:57;8.30;99.90
54898;DHT22;40800;52.704;6.398;2023-12-22T11:11:35;8.40;99.90
54898;DHT22;40800;52.704;6.398;2023-12-22T11:14:02;8.60;99.90
54898;DHT22;40800;52.704;6.398;2023-12-22T11:16:28;8.40;99.90
54898;DHT22;40800;52.704;6.398;2023-12-22T11:18:55;8.30;99.90
54898;DHT22;40800;52.704;6.398;2023-12-22T11:21:22;8.60;99.90
54898;DHT22;40800;52.704;6.398;2023-12-22T11:23:50;8.40;99.90
54898;DHT22;40800;52.704;6.398;2023-12-22T11:26:19;8.50;99.90
54898;DHT22;40800;52.704;6.398;2023-12-22T11:28:46;8.30;99.90
54898;DHT22;40800;52.704;6.398;2023-12-22T11:31:12;8.60;99.90
54898;DHT22;40800;52.704;6.398;2023-12-22T11:33:40;8.40;99.90
54898;DHT22;40800;52.704;6.398;2023-12-22T11:36:08;8.60;99.90
54898;DHT22;40800;52.704;6.398;2023-12-22T11:38:35;8.70;99.90
54898;DHT22;40800;52.704;6.398;2023-12-22T11:48:05;8.90;99.90
54898;DHT22;40800;52.704;6.398;2023-12-22T11:50:31;8.60;99.90
54898;DHT22;40800;52.704;6.398;2023-12-22T11:52:57;8.90;99.90
54898;DHT22;40800;52.704;6.398;2023-12-22T11:56:04;8.50;99.90
54898;DHT22;40800;52.704;6.398;2023-12-22T11:58:40;8.90;99.90
54898;DHT22;40800;52.704;6.398;2023-12-22T12:01:13;8.60;99.90
54898;DHT22;40800;52.704;6.398;2023-12-22T12:08:39;8.80;99.90
54898;DHT22;40800;52.704;6.398;2023-12-22T12:18:01;8.80;99.90
54898;DHT22;40800;52.704;6.398;2023-12-22T12:20:28;8.60;99.90
54898;DHT22;40800;52.704;6.398;2023-12-22T12:22:54;8.60;99.90
54898;DHT22;40800;52.704;6.398;2023-12-22T12:25:22;8.60;99.90
54898;DHT22;40800;52.704;6.398;2023-12-22T12:28:08;8.60;99.90
54898;DHT22;40800;52.704;6.398;2023-12-22T12:30:36;8.70;99.90
54898;DHT22;40800;52.704;6.398;2023-12-22T12:33:07;9.10;99.90
54898;DHT22;40800;52.704;6.398;2023-12-22T12:35:33;8.70;99.90
54898;DHT22;40800;52.704;6.398;2023-12-22T12:38:00;8.90;99.90
54898;DHT22;40800;52.704;6.398;2023-12-22T12:40:27;9.10;99.90
54898;DHT22;40800;52.704;6.398;2023-12-22T12:42:59;8.70;99.90
54898;DHT22;40800;52.704;6.398;2023-12-22T12:45:25;8.70;99.90
54898;DHT22;40800;52.704;6.398;2023-12-22T12:48:17;8.90;99.90
54898;DHT22;40800;52.704;6.398;2023-12-22T12:50:46;9.30;99.90
54898;DHT22;40800;52.704;6.398;2023-12-22T12:53:11;9.30;99.90
54898;DHT22;40800;52.704;6.398;2023-12-22T12:55:37;8.80;99.90
54898;DHT22;40800;52.704;6.398;2023-12-22T12:58:03;9.20;99.90
54898;DHT22;40800;52.704;6.398;2023-12-22T13:00:32;9.30;99.90
54898;DHT22;40800;52.704;6.398;2023-12-22T13:03:02;9.00;99.90
54898;DHT22;40800;52.704;6.398;2023-12-22T13:05:31;8.90;99.90
54898;DHT22;40800;52.704;6.398;2023-12-22T13:08:11;9.20;99.90
54898;DHT22;40800;52.704;6.398;2023-12-22T13:10:37;9.10;99.90
54898;DHT22;40800;52.704;6.398;2023-12-22T13:13:03;9.40;99.90
54898;DHT22;40800;52.704;6.398;2023-12-22T13:15:29;9.40;99.90
54898;DHT22;40800;52.704;6.398;2023-12-22T13:17:55;9.40;99.90
54898;DHT22;40800;52.704;6.398;2023-12-22T13:20:20;9.00;99.90
54898;DHT22;40800;52.704;6.398;2023-12-22T13:22:46;8.90;99.90
54898;DHT22;40800;52.704;6.398;2023-12-22T13:25:12;8.90;99.90
54898;DHT22;40800;52.704;6.398;2023-12-22T13:27:47;9.20;99.90
54898;DHT22;40800;52.704;6.398;2023-12-22T13:30:36;9.10;99.90
54898;DHT22;40800;52.704;6.398;2023-12-22T13:33:05;9.00;99.90
54898;DHT22;40800;52.704;6.398;2023-12-22T13:35:31;9.10;99.90
54898;DHT22;40800;52.704;6.398;2023-12-22T13:37:58;8.80;99.90
54898;DHT22;40800;52.704;6.398;2023-12-22T13:40:24;9.40;99.90
54898;DHT22;40800;52.704;6.398;2023-12-22T13:42:59;8.80;99.90
54898;DHT22;40800;52.704;6.398;2023-12-22T13:45:27;9.40;99.90
54898;DHT22;40800;52.704;6.398;2023-12-22T13:47:53;8.80;99.90
54898;DHT22;40800;52.704;6.398;2023-12-22T13:50:19;9.40;99.90
54898;DHT22;40800;52.704;6.398;2023-12-22T13:52:48;9.10;99.90
54898;DHT22;40800;52.704;6.398;2023-12-22T13:55:16;9.20;99.90
54898;DHT22;40800;52.704;6.398;2023-12-22T13:57:43;9.50;99.90
54898;DHT22;40800;52.704;6.398;2023-12-22T14:02:47;9.30;99.90
54898;DHT22;40800;52.704;6.398;2023-12-22T14:05:14;8.90;99.90
54898;DHT22;40800;52.704;6.398;2023-12-22T14:07:40;9.10;99.90
54898;DHT22;40800;52.704;6.398;2023-12-22T14:10:07;8.80;99.90
54898;DHT22;40800;52.704;6.398;2023-12-22T14:12:33;9.10;99.90
54898;DHT22;40800;52.704;6.398;2023-12-22T14:14:58;9.50;99.90
54898;DHT22;40800;52.704;6.398;2023-12-22T14:17:24;8.90;99.90
54898;DHT22;40800;52.704;6.398;2023-12-22T14:19:50;9.60;99.90
54898;DHT22;40800;52.704;6.398;2023-12-22T14:22:15;9.30;99.90
54898;DHT22;40800;52.704;6.398;2023-12-22T14:24:41;9.60;99.90
54898;DHT22;40800;52.704;6.398;2023-12-22T14:27:06;9.70;99.90
54898;DHT22;40800;52.704;6.398;2023-12-22T14:29:32;9.30;99.90
54898;DHT22;40800;52.704;6.398;2023-12-22T14:31:58;9.00;99.90
54898;DHT22;40800;52.704;6.398;2023-12-22T14:34:24;8.80;99.90
54898;DHT22;40800;52.704;6.398;2023-12-22T14:36:49;8.90;99.90
54898;DHT22;40800;52.704;6.398;2023-12-22T14:39:15;8.80;99.90
54898;DHT22;40800;52.704;6.398;2023-12-22T14:41:41;9.60;99.90
54898;DHT22;40800;52.704;6.398;2023-12-22T14:44:11;9.20;99.90
54898;DHT22;40800;52.704;6.398;2023-12-22T14:46:38;8.90;99.90
54898;DHT22;40800;52.704;6.398;2023-12-22T14:49:04;9.70;99.90
54898;DHT22;40800;52.704;6.398;2023-12-22T14:51:37;9.60;99.90
54898;DHT22;40800;52.704;6.398;2023-12-22T14:54:07;9.50;99.90
54898;DHT22;40800;52.704;6.398;2023-12-22T14:56:33;8.60;99.90
54898;DHT22;40800;52.704;6.398;2023-12-22T14:58:59;8.70;99.90
54898;DHT22;40800;52.704;6.398;2023-12-22T15:08:21;8.80;99.90
54898;DHT22;40800;52.704;6.398;2023-12-22T15:10:47;9.00;99.90
54898;DHT22;40800;52.704;6.398;2023-12-22T15:13:12;9.40;99.90
54898;DHT22;40800;52.704;6.398;2023-12-22T15:15:38;8.80;99.90
54898;DHT22;40800;52.704;6.398;2023-12-22T15:18:04;9.30;99.90
54898;DHT22;40800;52.704;6.398;2023-12-22T15:20:30;9.10;99.90
54898;DHT22;40800;52.704;6.398;2023-12-22T15:22:56;8.80;99.90
54898;DHT22;40800;52.704;6.398;2023-12-22T15:25:21;9.10;99.90
54898;DHT22;40800;52.704;6.398;2023-12-22T15:27:47;9.20;99.90
54898;DHT22;40800;52.704;6.398;2023-12-22T15:30:13;8.80;99.90
54898;DHT22;40800;52.704;6.398;2023-12-22T15:32:38;8.90;99.90
54898;DHT22;40800;52.704;6.398;2023-12-22T15:35:05;9.30;99.90
54898;DHT22;40800;52.704;6.398;2023-12-22T15:37:30;9.30;99.90
54898;DHT22;40800;52.704;6.398;2023-12-22T15:39:56;9.30;99.90
54898;DHT22;40800;52.704;6.398;2023-12-22T15:42:22;8.90;99.90
54898;DHT22;40800;52.704;6.398;2023-12-22T15:44:47;9.40;99.90
54898;DHT22;40800;52.704;6.398;2023-12-22T15:47:13;8.80;99.90
54898;DHT22;40800;52.704;6.398;2023-12-22T15:49:38;9.30;99.90
54898;DHT22;40800;52.704;6.398;2023-12-22T15:52:06;9.20;99.90
54898;DHT22;40800;52.704;6.398;2023-12-22T15:54:33;9.30;99.90
54898;DHT22;40800;52.704;6.398;2023-12-22T15:56:59;8.90;99.90
54898;DHT22;40800;52.704;6.398;2023-12-22T15:59:27;8.90;99.90
54898;DHT22;40800;52.704;6.398;2023-12-22T16:01:53;9.20;99.90
54898;DHT22;40800;52.704;6.398;2023-12-22T16:04:18;9.20;99.90
54898;DHT22;40800;52.704;6.398;2023-12-22T16:06:44;9.20;99.90
54898;DHT22;40800;52.704;6.398;2023-12-22T16:09:10;9.20;99.90
54898;DHT22;40800;52.704;6.398;2023-12-22T16:11:35;9.30;99.90
54898;DHT22;40800;52.704;6.398;2023-12-22T16:14:01;9.10;99.90
54898;DHT22;40800;52.704;6.398;2023-12-22T16:16:26;9.10;99.90